Time;durP1;ratioP1;P1;durP2;ratioP2;P2;SDS_P1;SDS_P2;PMS_P1;PMS_P2;Temp;Humidity;BMP_temperature;BMP_pressure;BME280_temperature;BME280_humidity;BME280_pressure;Samples;Min_cycle;Max_cycle;Signal;HPM_P1;HPM_P2
2022/11/12 00:01:15;;;;;;;2.85;2.20;;;;;;;;;;5050801;28;20495;-84
2022/11/12 00:03:41;;;;;;;6.50;3.45;;;;;;;;;;5050541;28;20028;-84
2022/11/12 00:06:06;;;;;;;4.68;2.88;;;;;;;;;;5050624;28;20423;-84
2022/11/12 00:08:32;;;;;;;3.17;2.25;;;;;;;;;;5050544;28;20029;-84
2022/11/12 00:10:57;;;;;;;1.98;1.75;;;;;;;;;;5050638;28;20100;-84
2022/11/12 00:36:24;;;;;;;7.28;3.17;;;;;;;;;;5109431;27;20392;-83
2022/11/12 00:38:49;;;;;;;6.20;3.28;;;;;;;;;;5110903;28;20073;-85
2022/11/12 00:41:15;;;;;;;5.75;3.13;;;;;;;;;;5111737;28;20050;-85
2022/11/12 00:43:40;;;;;;;4.90;2.47;;;;;;;;;;5107231;28;20028;-85
2022/11/12 00:46:05;;;;;;;6.18;2.95;;;;;;;;;;5111337;28;20032;-85
2022/11/12 00:48:31;;;;;;;4.82;2.22;;;;;;;;;;5110319;28;20032;-86
2022/11/12 00:51:01;;;;;;;2.15;1.23;;;;;;;;;;5110425;28;20118;-86
2022/11/12 00:53:26;;;;;;;3.85;2.08;;;;;;;;;;5110070;28;20168;-86
2022/11/12 00:55:52;;;;;;;4.35;2.15;;;;;;;;;;5109411;28;20039;-85
2022/11/12 00:58:17;;;;;;;3.17;1.85;;;;;;;;;;5110361;28;20081;-86
2022/11/12 01:00:43;;;;;;;2.28;1.73;;;;;;;;;;5110132;28;20073;-85
2022/11/12 01:03:08;;;;;;;4.40;2.45;;;;;;;;;;5110195;28;20104;-85
2022/11/12 01:05:33;;;;;;;2.15;1.95;;;;;;;;;;5109921;28;20020;-86
2022/11/12 01:07:59;;;;;;;5.68;2.80;;;;;;;;;;5106897;28;20020;-85
2022/11/12 01:10:24;;;;;;;4.25;2.42;;;;;;;;;;5110192;28;20073;-86
2022/11/12 01:12:50;;;;;;;4.10;2.83;;;;;;;;;;5109916;28;20023;-85
2022/11/12 01:15:15;;;;;;;2.75;1.30;;;;;;;;;;5109609;28;20024;-85
2022/11/12 01:17:41;;;;;;;2.50;1.83;;;;;;;;;;5108258;28;20049;-84
2022/11/12 01:20:06;;;;;;;2.25;1.58;;;;;;;;;;5110059;28;20053;-85
2022/11/12 01:22:32;;;;;;;4.88;2.97;;;;;;;;;;5108142;28;20027;-84
2022/11/12 01:24:57;;;;;;;4.68;2.70;;;;;;;;;;5106580;28;20528;-84
2022/11/12 01:27:23;;;;;;;3.95;2.65;;;;;;;;;;5109467;28;20232;-84
2022/11/12 01:29:48;;;;;;;4.18;3.42;;;;;;;;;;5107608;28;20098;-84
2022/11/12 01:32:13;;;;;;;8.55;5.07;;;;;;;;;;5108775;28;20035;-85
2022/11/12 01:34:39;;;;;;;10.43;6.40;;;;;;;;;;5108634;28;20054;-85
2022/11/12 01:37:04;;;;;;;8.43;4.13;;;;;;;;;;5095304;28;20105;-85
2022/11/12 01:39:30;;;;;;;8.32;4.40;;;;;;;;;;5095186;28;20383;-84
2022/11/12 01:41:55;;;;;;;9.85;5.70;;;;;;;;;;5095618;28;20598;-84
2022/11/12 01:44:28;;;;;;;6.57;4.53;;;;;;;;;;5095331;28;20031;-85
2022/11/12 01:47:25;;;;;;;7.22;5.43;;;;;;;;;;5093007;28;20032;-85
2022/11/12 01:50:12;;;;;;;5.93;4.80;;;;;;;;;;5094278;28;20034;-85
2022/11/12 01:53:00;;;;;;;9.98;5.25;;;;;;;;;;5095138;28;20020;-85
2022/11/12 01:55:29;;;;;;;8.07;4.35;;;;;;;;;;5094446;28;20024;-85
2022/11/12 01:58:13;;;;;;;7.30;4.13;;;;;;;;;;5095511;28;20032;-85
2022/11/12 02:00:40;;;;;;;5.90;3.92;;;;;;;;;;5092649;28;20028;-85
2022/11/12 02:03:11;;;;;;;8.50;4.55;;;;;;;;;;5090681;28;20413;-85
2022/11/12 02:05:38;;;;;;;4.38;3.78;;;;;;;;;;5094576;28;20027;-85
2022/11/12 02:08:04;;;;;;;6.20;4.10;;;;;;;;;;5094733;28;20035;-85
2022/11/12 02:10:30;;;;;;;8.80;4.35;;;;;;;;;;5096348;28;20034;-86
2022/11/12 02:15:40;;;;;;;5.70;3.22;;;;;;;;;;5093943;28;20046;-86
2022/11/12 02:18:06;;;;;;;6.90;4.68;;;;;;;;;;5085241;28;20024;-85
2022/11/12 02:20:36;;;;;;;6.93;3.67;;;;;;;;;;5094811;28;20035;-87
2022/11/12 02:23:02;;;;;;;;;;;;;;;;;;5095929;28;20020;-85
2022/11/12 02:25:28;;;;;;;8.57;5.68;;;;;;;;;;5095054;28;19919;-83
2022/11/12 02:27:55;;;;;;;9.25;5.75;;;;;;;;;;5094360;28;20433;-84
2022/11/12 02:30:37;;;;;;;4.82;3.63;;;;;;;;;;5090474;28;20111;-82
2022/11/12 02:33:03;;;;;;;7.68;4.45;;;;;;;;;;5094575;28;20028;-82
2022/11/12 02:35:29;;;;;;;4.50;2.95;;;;;;;;;;5091523;28;20059;-82
2022/11/12 02:37:55;;;;;;;3.88;1.98;;;;;;;;;;5095591;28;20437;-82
2022/11/12 02:40:20;;;;;;;3.42;1.90;;;;;;;;;;5094278;28;20032;-83
2022/11/12 02:42:46;;;;;;;2.22;1.95;;;;;;;;;;5094030;28;20031;-82
2022/11/12 02:45:11;;;;;;;1.92;1.50;;;;;;;;;;5093293;28;20024;-82
2022/11/12 02:47:37;;;;;;;1.92;1.27;;;;;;;;;;5091835;28;20024;-82
2022/11/12 02:50:03;;;;;;;3.45;1.25;;;;;;;;;;5094146;28;20188;-83
2022/11/12 02:52:29;;;;;;;1.45;1.05;;;;;;;;;;5094144;28;20404;-81
2022/11/12 02:54:54;;;;;;;3.15;1.95;;;;;;;;;;5092174;28;20032;-82
2022/11/12 02:57:20;;;;;;;2.85;2.00;;;;;;;;;;5093704;28;20044;-81
2022/11/12 02:59:45;;;;;;;2.83;1.52;;;;;;;;;;5089670;28;20110;-83
2022/11/12 03:02:11;;;;;;;2.15;1.42;;;;;;;;;;5090682;28;20021;-82
2022/11/12 03:04:36;;;;;;;5.80;1.80;;;;;;;;;;5092998;28;20031;-83
2022/11/12 03:07:02;;;;;;;3.15;1.77;;;;;;;;;;5093025;28;20109;-83
2022/11/12 03:09:27;;;;;;;1.88;1.48;;;;;;;;;;5093973;28;20129;-82
2022/11/12 03:11:52;;;;;;;1.13;0.75;;;;;;;;;;5093143;28;20035;-83
2022/11/12 03:14:18;;;;;;;2.35;1.23;;;;;;;;;;5088394;28;20044;-81
2022/11/12 03:16:43;;;;;;;2.83;1.35;;;;;;;;;;5093075;28;20561;-81
2022/11/12 03:19:08;;;;;;;2.00;1.63;;;;;;;;;;5092230;28;20027;-80
2022/11/12 03:21:34;;;;;;;2.58;2.05;;;;;;;;;;5092756;28;20036;-81
2022/11/12 03:24:00;;;;;;;2.47;1.40;;;;;;;;;;5090993;28;20027;-82
2022/11/12 03:26:26;;;;;;;1.50;1.00;;;;;;;;;;5090976;28;20049;-82
2022/11/12 03:28:51;;;;;;;1.40;1.10;;;;;;;;;;5090457;28;20032;-82
2022/11/12 03:31:17;;;;;;;2.33;1.40;;;;;;;;;;5091784;28;20668;-82
2022/11/12 03:33:42;;;;;;;1.17;1.02;;;;;;;;;;5090719;28;20024;-83
2022/11/12 03:36:08;;;;;;;3.50;1.52;;;;;;;;;;5091698;28;20396;-83
2022/11/12 03:38:33;;;;;;;2.40;1.58;;;;;;;;;;5091983;28;20024;-83
2022/11/12 03:40:59;;;;;;;0.98;0.90;;;;;;;;;;5092236;28;20474;-83
2022/11/12 03:43:24;;;;;;;1.20;1.10;;;;;;;;;;5091777;28;20049;-83
2022/11/12 03:45:49;;;;;;;1.08;0.98;;;;;;;;;;5090508;28;20035;-83
2022/11/12 03:48:15;;;;;;;1.65;0.88;;;;;;;;;;5091356;28;20118;-81
2022/11/12 03:50:40;;;;;;;0.77;0.70;;;;;;;;;;5092114;28;20027;-83
2022/11/12 03:53:06;;;;;;;1.08;0.75;;;;;;;;;;5091993;28;20024;-82
2022/11/12 03:55:33;;;;;;;1.05;0.88;;;;;;;;;;5091334;28;20024;-83
2022/11/12 03:57:59;;;;;;;0.77;0.77;;;;;;;;;;5091694;28;20085;-82
2022/11/12 04:00:26;;;;;;;4.60;1.70;;;;;;;;;;5091237;28;20028;-81
2022/11/12 04:02:52;;;;;;;1.17;1.05;;;;;;;;;;5091523;28;20434;-81
2022/11/12 04:10:55;;;;;;;1.15;0.90;;;;;;;;;;5088675;28;20062;-82
2022/11/12 04:13:29;;;;;;;1.17;0.68;;;;;;;;;;5092656;28;20020;-84
2022/11/12 04:21:56;;;;;;;2.20;0.90;;;;;;;;;;5090332;28;20084;-86
2022/11/12 04:27:33;;;;;;;1.90;1.17;;;;;;;;;;5092057;28;20494;-86
2022/11/12 04:30:18;;;;;;;1.67;1.13;;;;;;;;;;5092737;28;20394;-84
2022/11/12 04:32:53;;;;;;;1.13;1.00;;;;;;;;;;5090571;28;20032;-82
2022/11/12 04:35:20;;;;;;;1.17;0.80;;;;;;;;;;5088887;28;20090;-81
2022/11/12 04:37:47;;;;;;;1.10;0.70;;;;;;;;;;5091201;28;20073;-82
2022/11/12 04:45:49;;;;;;;2.72;1.65;;;;;;;;;;5089626;28;20077;-82
2022/11/12 04:48:15;;;;;;;2.42;1.52;;;;;;;;;;5091142;28;20478;-82
2022/11/12 04:50:44;;;;;;;1.58;0.90;;;;;;;;;;5092104;28;20028;-84
2022/11/12 04:53:10;;;;;;;2.70;1.77;;;;;;;;;;5090187;28;20056;-83
2022/11/12 04:55:35;;;;;;;2.80;1.50;;;;;;;;;;5088651;28;20506;-83
2022/11/12 04:58:01;;;;;;;2.80;1.40;;;;;;;;;;5090165;28;20055;-83
2022/11/12 05:00:26;;;;;;;0.88;0.82;;;;;;;;;;5088781;28;20031;-83
2022/11/12 05:02:52;;;;;;;2.97;1.80;;;;;;;;;;5089808;28;20107;-84
2022/11/12 05:05:17;;;;;;;1.55;1.05;;;;;;;;;;5087294;28;20024;-84
2022/11/12 05:07:43;;;;;;;1.02;0.98;;;;;;;;;;5084929;28;20103;-84
2022/11/12 05:10:09;;;;;;;1.85;1.35;;;;;;;;;;5090350;28;20058;-86
2022/11/12 05:12:34;;;;;;;1.98;1.20;;;;;;;;;;5091919;28;20072;-86
2022/11/12 05:15:00;;;;;;;1.17;1.08;;;;;;;;;;5093320;28;20036;-85
2022/11/12 05:17:25;;;;;;;2.95;2.08;;;;;;;;;;5095373;28;20043;-85
2022/11/12 05:19:51;;;;;;;1.40;0.90;;;;;;;;;;5092132;28;20016;-82
2022/11/12 05:22:16;;;;;;;4.13;1.85;;;;;;;;;;5087902;28;20102;-81
2022/11/12 05:24:43;;;;;;;4.13;2.60;;;;;;;;;;5090766;28;20012;-83
2022/11/12 05:27:19;;;;;;;1.45;1.33;;;;;;;;;;5092405;28;20472;-83
2022/11/12 05:29:45;;;;;;;5.88;1.95;;;;;;;;;;5093512;28;20024;-84
2022/11/12 05:32:12;;;;;;;2.72;1.65;;;;;;;;;;5092390;28;20471;-82
2022/11/12 05:34:38;;;;;;;0.50;0.50;;;;;;;;;;5089055;28;20070;-83
2022/11/12 05:37:05;;;;;;;2.40;1.48;;;;;;;;;;5092438;28;20415;-81
2022/11/12 05:39:31;;;;;;;3.08;1.55;;;;;;;;;;5092837;28;20023;-82
2022/11/12 05:41:56;;;;;;;1.52;1.08;;;;;;;;;;5085436;28;20099;-84
2022/11/12 05:44:22;;;;;;;1.25;1.15;;;;;;;;;;5092023;28;20030;-83
2022/11/12 05:46:49;;;;;;;2.40;1.40;;;;;;;;;;5089789;28;20054;-83
2022/11/12 05:49:14;;;;;;;4.72;1.63;;;;;;;;;;5093864;28;20673;-83
2022/11/12 05:51:40;;;;;;;1.67;1.40;;;;;;;;;;5087083;28;20039;-83
2022/11/12 05:54:05;;;;;;;9.75;6.07;;;;;;;;;;5090478;28;20065;-81
2022/11/12 05:56:31;;;;;;;8.95;4.97;;;;;;;;;;5087262;28;20464;-82
2022/11/12 05:58:57;;;;;;;8.82;5.03;;;;;;;;;;5082213;28;20028;-81
2022/11/12 06:01:22;;;;;;;3.97;2.55;;;;;;;;;;5083395;28;20024;-79
2022/11/12 06:03:48;;;;;;;1.65;1.33;;;;;;;;;;5088548;28;20479;-82
2022/11/12 06:06:13;;;;;;;1.98;1.75;;;;;;;;;;5089266;28;20432;-84
2022/11/12 06:08:38;;;;;;;2.28;1.88;;;;;;;;;;5086620;28;20467;-82
2022/11/12 06:11:04;;;;;;;3.30;1.65;;;;;;;;;;5085376;28;20070;-82
2022/11/12 06:13:29;;;;;;;2.83;1.70;;;;;;;;;;5088740;28;20024;-82
2022/11/12 06:15:55;;;;;;;2.63;1.65;;;;;;;;;;5088786;28;20032;-83
2022/11/12 06:18:22;;;;;;;2.05;1.17;;;;;;;;;;5087582;28;20047;-82
2022/11/12 06:21:18;;;;;;;0.73;0.68;;;;;;;;;;5087308;28;20053;-82
2022/11/12 06:23:33;;;;;;;2.10;1.48;;;;;;;;;;5089615;28;20048;-83
2022/11/12 06:26:00;;;;;;;2.45;1.65;;;;;;;;;;5092290;28;20028;-83
2022/11/12 06:28:26;;;;;;;3.50;2.28;;;;;;;;;;5088094;28;20059;-82
2022/11/12 06:30:51;;;;;;;5.25;2.50;;;;;;;;;;5087464;28;20048;-81
2022/11/12 06:33:17;;;;;;;2.25;1.60;;;;;;;;;;5086670;28;20020;-82
2022/11/12 06:35:42;;;;;;;1.75;1.23;;;;;;;;;;5086471;28;20040;-82
2022/11/12 06:38:07;;;;;;;3.55;2.30;;;;;;;;;;5086422;28;20099;-82
2022/11/12 06:40:34;;;;;;;3.55;2.38;;;;;;;;;;5081074;28;20048;-82
2022/11/12 06:42:59;;;;;;;1.55;1.27;;;;;;;;;;5084800;28;20486;-80
2022/11/12 06:45:25;;;;;;;1.95;1.52;;;;;;;;;;5085881;28;20012;-82
2022/11/12 06:47:50;;;;;;;2.40;2.20;;;;;;;;;;5080285;28;20081;-81
2022/11/12 06:50:16;;;;;;;1.80;1.30;;;;;;;;;;5079937;28;20044;-80
2022/11/12 06:52:41;;;;;;;2.75;1.88;;;;;;;;;;5087903;28;20023;-82
2022/11/12 06:55:07;;;;;;;4.07;1.42;;;;;;;;;;5087840;28;20051;-80
2022/11/12 06:57:33;;;;;;;1.33;1.20;;;;;;;;;;5090553;28;20032;-83
2022/11/12 06:59:59;;;;;;;1.42;1.10;;;;;;;;;;5087924;28;20081;-83
2022/11/12 07:02:24;;;;;;;1.70;1.35;;;;;;;;;;5088284;28;20417;-81
2022/11/12 07:04:53;;;;;;;2.75;1.23;;;;;;;;;;5087058;28;20390;-83
2022/11/12 07:07:18;;;;;;;2.08;1.50;;;;;;;;;;5081773;28;20077;-83
2022/11/12 07:09:44;;;;;;;3.53;1.65;;;;;;;;;;5087113;28;20028;-82
2022/11/12 07:12:09;;;;;;;4.38;1.73;;;;;;;;;;5084852;28;20036;-82
2022/11/12 07:14:34;;;;;;;2.45;1.20;;;;;;;;;;5083420;28;20039;-80
2022/11/12 07:17:00;;;;;;;4.57;1.77;;;;;;;;;;5076630;28;20029;-81
2022/11/12 07:19:25;;;;;;;3.20;1.00;;;;;;;;;;5078801;28;20447;-80
2022/11/12 07:21:51;;;;;;;2.97;1.70;;;;;;;;;;5083757;28;20480;-81
2022/11/12 07:24:16;;;;;;;2.63;1.70;;;;;;;;;;5082699;28;20020;-83
2022/11/12 07:26:42;;;;;;;2.25;1.48;;;;;;;;;;5086700;28;20374;-85
2022/11/12 07:29:07;;;;;;;2.88;1.95;;;;;;;;;;5083765;28;20024;-82
2022/11/12 07:31:33;;;;;;;1.08;0.95;;;;;;;;;;5087288;28;20024;-80
2022/11/12 07:34:02;;;;;;;2.50;1.55;;;;;;;;;;5086571;28;20030;-80
2022/11/12 07:36:27;;;;;;;3.08;1.27;;;;;;;;;;5086122;28;20024;-80
2022/11/12 07:38:53;;;;;;;3.17;1.95;;;;;;;;;;5084315;28;20038;-81
2022/11/12 07:41:22;;;;;;;3.10;1.02;;;;;;;;;;5082697;28;20057;-81
2022/11/12 07:43:49;;;;;;;1.33;1.15;;;;;;;;;;5084737;28;20040;-81
2022/11/12 07:46:20;;;;;;;3.60;1.30;;;;;;;;;;5086365;28;20038;-84
2022/11/12 07:48:46;;;;;;;1.48;1.23;;;;;;;;;;5084737;28;20052;-81
2022/11/12 07:51:21;;;;;;;2.17;1.45;;;;;;;;;;5085510;28;20027;-83
2022/11/12 07:53:48;;;;;;;5.20;2.35;;;;;;;;;;5087013;28;20030;-82
2022/11/12 07:56:19;;;;;;;2.00;1.42;;;;;;;;;;5087431;28;20036;-82
2022/11/12 07:58:45;;;;;;;2.22;1.60;;;;;;;;;;5087411;28;20043;-82
2022/11/12 08:01:36;;;;;;;2.08;1.63;;;;;;;;;;5087869;28;20024;-82
2022/11/12 08:04:04;;;;;;;1.65;1.23;;;;;;;;;;5087219;28;20032;-81
2022/11/12 08:06:31;;;;;;;2.58;1.77;;;;;;;;;;5087000;28;20118;-83
2022/11/12 08:08:58;;;;;;;4.15;1.85;;;;;;;;;;5089165;28;20111;-81
2022/11/12 08:11:24;;;;;;;2.28;1.55;;;;;;;;;;5085618;28;20058;-83
2022/11/12 08:13:50;;;;;;;2.95;1.45;;;;;;;;;;5086791;28;20031;-81
2022/11/12 08:16:16;;;;;;;2.15;1.33;;;;;;;;;;5087111;28;20479;-82
2022/11/12 08:18:43;;;;;;;2.45;1.63;;;;;;;;;;5088493;28;20020;-82
2022/11/12 08:21:11;;;;;;;3.55;1.95;;;;;;;;;;5086216;28;20030;-83
2022/11/12 08:23:36;;;;;;;2.67;1.40;;;;;;;;;;5085427;28;20032;-83
2022/11/12 08:26:04;;;;;;;2.67;1.67;;;;;;;;;;5085642;28;20074;-84
2022/11/12 08:28:32;;;;;;;3.88;2.10;;;;;;;;;;5089282;28;20028;-83
2022/11/12 08:31:02;;;;;;;3.92;2.03;;;;;;;;;;5087192;28;20120;-83
2022/11/12 08:33:27;;;;;;;3.30;2.00;;;;;;;;;;5088786;28;20093;-80
2022/11/12 08:35:53;;;;;;;2.63;1.63;;;;;;;;;;5084945;28;20036;-83
2022/11/12 08:38:18;;;;;;;4.72;1.65;;;;;;;;;;5084643;28;20541;-82
2022/11/12 08:40:44;;;;;;;1.65;1.23;;;;;;;;;;5085865;28;20574;-83
2022/11/12 08:43:09;;;;;;;1.90;1.20;;;;;;;;;;5088167;28;20483;-82
2022/11/12 08:45:37;;;;;;;1.75;1.02;;;;;;;;;;5087220;28;20028;-82
2022/11/12 08:48:06;;;;;;;3.10;2.00;;;;;;;;;;5085037;28;20444;-84
2022/11/12 08:50:32;;;;;;;3.15;1.80;;;;;;;;;;5086428;28;20471;-81
2022/11/12 08:53:01;;;;;;;12.52;10.75;;;;;;;;;;5093146;28;20028;-82
2022/11/12 08:55:27;;;;;;;4.60;3.42;;;;;;;;;;5094741;28;20050;-82
2022/11/12 08:57:52;;;;;;;3.22;2.08;;;;;;;;;;5093144;28;20364;-82
2022/11/12 09:00:18;;;;;;;2.85;1.77;;;;;;;;;;5087740;28;20031;-81
2022/11/12 09:02:43;;;;;;;2.05;1.60;;;;;;;;;;5082098;28;20025;-83
2022/11/12 09:05:08;;;;;;;2.33;1.92;;;;;;;;;;5092312;28;20020;-88
2022/11/12 09:07:34;;;;;;;1.42;1.30;;;;;;;;;;5092615;28;20024;-82
2022/11/12 09:10:00;;;;;;;2.42;1.50;;;;;;;;;;5089436;28;20387;-81
2022/11/12 09:12:25;;;;;;;2.72;1.67;;;;;;;;;;5091419;28;20111;-82
2022/11/12 09:14:51;;;;;;;3.33;1.83;;;;;;;;;;5090503;28;20025;-82
2022/11/12 09:17:16;;;;;;;4.05;2.00;;;;;;;;;;5093536;28;20070;-83
2022/11/12 09:19:42;;;;;;;4.10;2.17;;;;;;;;;;5092019;28;20149;-84
2022/11/12 09:22:07;;;;;;;4.13;2.20;;;;;;;;;;5091199;28;20039;-80
2022/11/12 09:24:33;;;;;;;2.25;1.42;;;;;;;;;;5091419;28;20020;-82
2022/11/12 09:26:58;;;;;;;3.50;2.25;;;;;;;;;;5089673;28;20085;-84
2022/11/12 09:29:24;;;;;;;2.08;1.40;;;;;;;;;;5088137;28;20024;-84
2022/11/12 09:31:50;;;;;;;2.50;1.50;;;;;;;;;;5089807;28;20028;-84
2022/11/12 09:34:15;;;;;;;2.17;1.55;;;;;;;;;;5093789;28;20063;-83
2022/11/12 09:36:41;;;;;;;3.58;2.00;;;;;;;;;;5091910;28;20411;-83
2022/11/12 09:39:06;;;;;;;1.23;1.00;;;;;;;;;;5092094;28;20020;-81
2022/11/12 09:41:35;;;;;;;3.42;1.98;;;;;;;;;;5090999;28;20476;-82
2022/11/12 09:44:10;;;;;;;4.07;2.27;;;;;;;;;;5093480;28;20103;-84
2022/11/12 09:46:52;;;;;;;2.53;2.13;;;;;;;;;;5093074;28;20020;-81
2022/11/12 09:49:18;;;;;;;3.47;2.00;;;;;;;;;;5089886;28;20051;-83
2022/11/12 09:52:18;;;;;;;1.52;1.33;;;;;;;;;;5091028;28;20496;-81
2022/11/12 09:54:44;;;;;;;2.17;1.77;;;;;;;;;;5087623;28;20016;-81
2022/11/12 09:57:12;;;;;;;4.43;3.08;;;;;;;;;;5090258;28;20410;-82
2022/11/12 09:59:41;;;;;;;5.20;4.18;;;;;;;;;;5090986;28;20039;-84
2022/11/12 10:02:15;;;;;;;3.13;2.20;;;;;;;;;;5091387;28;20069;-83
2022/11/12 10:04:58;;;;;;;14.02;8.02;;;;;;;;;;5091692;28;20028;-82
2022/11/12 10:07:30;;;;;;;8.52;5.55;;;;;;;;;;5088030;28;20116;-81
2022/11/12 10:10:15;;;;;;;5.22;2.35;;;;;;;;;;5091193;28;20027;-84
2022/11/12 10:13:15;;;;;;;3.88;2.00;;;;;;;;;;5090343;28;20028;-82
2022/11/12 10:19:43;;;;;;;3.00;2.33;;;;;;;;;;5090955;28;20518;-81
2022/11/12 10:22:21;;;;;;;4.30;2.28;;;;;;;;;;5060154;28;20435;-81
2022/11/12 10:24:47;;;;;;;4.53;3.08;;;;;;;;;;5090604;28;20073;-84
2022/11/12 10:27:40;;;;;;;10.25;2.50;;;;;;;;;;5089945;28;20039;-82
2022/11/12 10:30:13;;;;;;;3.70;1.75;;;;;;;;;;5088657;28;20127;-83
2022/11/12 10:32:42;;;;;;;3.15;2.08;;;;;;;;;;5092002;28;20020;-81
2022/11/12 10:35:09;;;;;;;6.45;4.32;;;;;;;;;;5092041;28;20044;-83
2022/11/12 10:37:56;;;;;;;26.92;15.55;;;;;;;;;;5092737;28;20379;-82
2022/11/12 10:40:29;;;;;;;95.90;57.05;;;;;;;;;;5090871;28;20505;-81
2022/11/12 10:42:59;;;;;;;78.13;50.83;;;;;;;;;;5091325;28;20028;-80
2022/11/12 10:45:25;;;;;;;89.97;59.55;;;;;;;;;;5091357;28;20420;-82
2022/11/12 10:47:50;;;;;;;84.85;51.30;;;;;;;;;;5092797;28;20074;-84
2022/11/12 10:50:22;;;;;;;54.15;30.40;;;;;;;;;;5092326;28;20502;-83
2022/11/12 10:52:57;;;;;;;110.00;60.92;;;;;;;;;;5092504;28;20030;-80
2022/11/12 10:55:28;;;;;;;157.43;92.90;;;;;;;;;;5092411;28;20379;-83
2022/11/12 10:58:09;;;;;;;39.97;28.65;;;;;;;;;;5092528;28;20032;-83
2022/11/12 11:00:36;;;;;;;94.97;62.38;;;;;;;;;;5090787;28;20027;-82
2022/11/12 11:03:13;;;;;;;261.00;166.15;;;;;;;;;;5090914;28;20028;-83
2022/11/12 11:05:53;;;;;;;97.63;61.38;;;;;;;;;;5091638;28;20031;-82
2022/11/12 11:09:12;;;;;;;37.08;21.58;;;;;;;;;;5091562;28;20533;-83
2022/11/12 11:11:47;;;;;;;50.13;34.97;;;;;;;;;;5068564;28;20086;-81
2022/11/12 11:14:22;;;;;;;238.38;150.32;;;;;;;;;;5091279;28;20046;-82
2022/11/12 11:16:53;;;;;;;215.32;144.85;;;;;;;;;;5089311;28;20027;-82
2022/11/12 11:19:19;;;;;;;111.95;65.80;;;;;;;;;;5091807;28;20020;-83
2022/11/12 11:21:47;;;;;;;110.47;65.57;;;;;;;;;;5092215;28;20477;-83
2022/11/12 11:24:37;;;;;;;444.40;296.88;;;;;;;;;;5089353;28;20024;-82
2022/11/12 11:27:08;;;;;;;;;;;;;;;;;;5089960;28;20028;-85
2022/11/12 11:30:01;;;;;;;75.45;45.78;;;;;;;;;;5090842;28;19912;-79
2022/11/12 11:32:48;;;;;;;16.58;8.90;;;;;;;;;;5091949;28;20053;-84
2022/11/12 11:35:37;;;;;;;5.60;3.30;;;;;;;;;;5091517;28;20144;-83
2022/11/12 11:38:11;;;;;;;4.45;2.67;;;;;;;;;;5088236;28;20085;-83
2022/11/12 11:40:42;;;;;;;4.50;2.97;;;;;;;;;;5089963;28;20035;-84
2022/11/12 11:43:31;;;;;;;4.22;2.63;;;;;;;;;;5090537;28;20467;-83
2022/11/12 11:46:13;;;;;;;3.03;1.63;;;;;;;;;;5091094;28;20036;-85
2022/11/12 11:48:54;;;;;;;2.08;1.52;;;;;;;;;;5087612;28;21372;-84
2022/11/12 11:51:33;;;;;;;2.40;1.67;;;;;;;;;;5090549;28;20532;-82
2022/11/12 11:54:14;;;;;;;2.17;1.40;;;;;;;;;;5084442;28;20379;-86
2022/11/12 11:56:43;;;;;;;3.20;1.73;;;;;;;;;;5088979;28;20127;-83
2022/11/12 11:59:37;;;;;;;1.80;1.33;;;;;;;;;;5088286;28;20107;-85
2022/11/12 12:02:31;;;;;;;1.00;0.70;;;;;;;;;;5089766;28;20063;-82
2022/11/12 12:04:59;;;;;;;4.03;1.60;;;;;;;;;;5088756;28;20028;-83
2022/11/12 12:07:31;;;;;;;1.10;0.98;;;;;;;;;;5088883;28;20459;-84
2022/11/12 12:10:13;;;;;;;2.88;1.70;;;;;;;;;;5087764;28;20074;-85
2022/11/12 12:12:38;;;;;;;1.42;0.93;;;;;;;;;;5088022;28;20035;-87
2022/11/12 12:15:22;;;;;;;0.93;0.90;;;;;;;;;;5090626;28;20448;-85
2022/11/12 12:17:56;;;;;;;2.88;1.88;;;;;;;;;;5086197;28;20035;-81
2022/11/12 12:20:37;;;;;;;2.15;1.38;;;;;;;;;;5090062;28;20019;-86
2022/11/12 12:23:12;;;;;;;1.45;1.25;;;;;;;;;;5089026;28;20487;-84
2022/11/12 12:25:41;;;;;;;1.92;1.65;;;;;;;;;;5087774;28;20463;-83
2022/11/12 12:28:15;;;;;;;2.58;1.42;;;;;;;;;;5089765;28;20437;-84
2022/11/12 12:30:46;;;;;;;2.55;1.52;;;;;;;;;;5090048;28;20464;-84
2022/11/12 12:33:47;;;;;;;2.15;1.25;;;;;;;;;;5090046;28;20020;-82
2022/11/12 12:36:40;;;;;;;2.78;0.90;;;;;;;;;;5089911;28;20395;-83
2022/11/12 12:39:11;;;;;;;1.50;1.13;;;;;;;;;;5089848;28;20039;-83
2022/11/12 12:41:43;;;;;;;1.33;0.88;;;;;;;;;;5086819;28;20106;-84
2022/11/12 12:44:09;;;;;;;2.47;1.42;;;;;;;;;;5091682;28;20434;-83
2022/11/12 12:46:53;;;;;;;2.45;1.50;;;;;;;;;;5090744;28;20028;-84
2022/11/12 12:49:31;;;;;;;2.15;1.52;;;;;;;;;;5089482;28;20030;-86
2022/11/12 12:51:58;;;;;;;1.33;1.10;;;;;;;;;;5090616;28;20039;-84
2022/11/12 12:54:50;;;;;;;2.78;1.73;;;;;;;;;;5090646;28;20067;-83
2022/11/12 12:57:36;;;;;;;1.77;1.45;;;;;;;;;;5090109;28;20108;-84
2022/11/12 13:00:30;;;;;;;2.75;1.33;;;;;;;;;;5089312;28;20031;-83
2022/11/12 13:02:56;;;;;;;2.20;1.30;;;;;;;;;;5089775;28;20390;-83
2022/11/12 13:05:31;;;;;;;3.38;1.98;;;;;;;;;;5090775;28;20016;-84
2022/11/12 13:08:04;;;;;;;2.53;1.30;;;;;;;;;;5088717;28;20103;-84
2022/11/12 13:10:43;;;;;;;3.05;1.70;;;;;;;;;;5089401;28;20108;-85
2022/11/12 13:13:17;;;;;;;1.80;1.35;;;;;;;;;;5090638;28;20099;-84
2022/11/12 13:15:52;;;;;;;3.13;1.98;;;;;;;;;;5088956;28;20053;-82
2022/11/12 13:18:36;;;;;;;2.25;1.48;;;;;;;;;;5088375;28;20367;-83
2022/11/12 13:21:16;;;;;;;2.15;1.25;;;;;;;;;;5090620;28;20028;-84
2022/11/12 13:24:04;;;;;;;2.75;1.20;;;;;;;;;;5089911;28;20077;-82
2022/11/12 13:26:44;;;;;;;1.92;1.52;;;;;;;;;;5086994;28;20032;-84
2022/11/12 13:29:27;;;;;;;2.72;1.20;;;;;;;;;;5082106;28;20040;-85
2022/11/12 13:32:29;;;;;;;2.70;1.85;;;;;;;;;;5086580;28;20074;-84
2022/11/12 13:35:20;;;;;;;1.35;1.17;;;;;;;;;;5092605;28;20063;-82
2022/11/12 13:38:03;;;;;;;12.73;1.55;;;;;;;;;;5093337;28;20064;-83
2022/11/12 13:40:28;;;;;;;4.47;2.85;;;;;;;;;;5092525;28;20051;-83
2022/11/12 13:43:34;;;;;;;2.13;1.90;;;;;;;;;;5087957;28;20068;-84
2022/11/12 13:46:08;;;;;;;2.95;1.95;;;;;;;;;;5085998;28;20043;-85
2022/11/12 13:48:46;;;;;;;3.25;1.80;;;;;;;;;;5092503;28;20183;-83
2022/11/12 13:51:23;;;;;;;3.05;1.75;;;;;;;;;;5089636;28;20050;-84
2022/11/12 13:53:48;;;;;;;1.95;1.50;;;;;;;;;;5089304;28;20020;-84
2022/11/12 13:56:31;;;;;;;2.28;1.42;;;;;;;;;;5091475;28;20028;-82
2022/11/12 13:59:17;;;;;;;9.48;2.13;;;;;;;;;;5092810;28;20081;-82
2022/11/12 14:01:43;;;;;;;3.40;2.17;;;;;;;;;;5089188;28;20024;-81
2022/11/12 14:04:14;;;;;;;2.63;1.83;;;;;;;;;;5093283;28;20383;-86
2022/11/12 14:06:43;;;;;;;1.58;1.35;;;;;;;;;;5091228;28;20028;-84
2022/11/12 14:09:30;;;;;;;2.85;1.77;;;;;;;;;;5087942;28;20062;-86
2022/11/12 14:12:07;;;;;;;3.45;1.98;;;;;;;;;;5087432;28;20020;-86
2022/11/12 14:14:48;;;;;;;2.63;1.77;;;;;;;;;;5091749;28;20028;-84
2022/11/12 14:17:36;;;;;;;2.50;2.30;;;;;;;;;;5093220;28;20032;-86
2022/11/12 14:20:29;;;;;;;2.60;1.67;;;;;;;;;;5079488;28;20036;-84
2022/11/12 14:22:55;;;;;;;2.97;1.95;;;;;;;;;;5089332;28;20043;-85
2022/11/12 14:25:25;;;;;;;4.43;2.85;;;;;;;;;;5087841;28;20062;-86
2022/11/12 14:27:55;;;;;;;2.67;2.47;;;;;;;;;;5091614;28;20514;-82
2022/11/12 14:30:27;;;;;;;3.22;1.73;;;;;;;;;;5091472;28;20028;-85
2022/11/12 14:33:06;;;;;;;3.22;2.70;;;;;;;;;;5090644;28;20455;-86
2022/11/12 14:35:37;;;;;;;6.57;3.13;;;;;;;;;;5090921;28;20039;-85
2022/11/12 14:38:08;;;;;;;2.28;2.05;;;;;;;;;;5093103;28;20044;-85
2022/11/12 14:40:44;;;;;;;2.60;1.33;;;;;;;;;;5086410;28;20024;-82
2022/11/12 14:43:31;;;;;;;2.13;1.60;;;;;;;;;;5091975;28;20028;-86
2022/11/12 14:45:59;;;;;;;3.47;2.20;;;;;;;;;;5089616;28;20032;-83
2022/11/12 14:48:25;;;;;;;2.10;1.85;;;;;;;;;;5091273;28;20028;-83
2022/11/12 14:50:57;;;;;;;1.58;1.45;;;;;;;;;;5092444;28;20036;-85
2022/11/12 14:53:37;;;;;;;1.48;1.17;;;;;;;;;;5091068;28;20107;-83
2022/11/12 14:56:06;;;;;;;20.88;12.15;;;;;;;;;;5089260;28;20024;-84
2022/11/12 14:58:32;;;;;;;7.72;5.45;;;;;;;;;;5090741;28;20085;-83
2022/11/12 15:01:23;;;;;;;3.80;2.83;;;;;;;;;;5092047;28;20429;-84
2022/11/12 15:03:50;;;;;;;2.97;1.83;;;;;;;;;;5088824;28;20028;-86
2022/11/12 15:06:27;;;;;;;3.65;1.50;;;;;;;;;;5090190;28;20384;-85
2022/11/12 15:08:57;;;;;;;2.70;2.03;;;;;;;;;;5090824;28;20032;-86
2022/11/12 15:11:34;;;;;;;2.13;1.75;;;;;;;;;;5083085;28;20024;-84
2022/11/12 15:14:02;;;;;;;2.15;1.90;;;;;;;;;;5088020;28;20123;-82
2022/11/12 15:16:35;;;;;;;3.25;2.45;;;;;;;;;;5087926;28;20039;-83
2022/11/12 15:19:12;;;;;;;4.20;2.60;;;;;;;;;;5088096;28;20497;-83
2022/11/12 15:21:47;;;;;;;2.33;1.83;;;;;;;;;;5092622;28;20383;-83
2022/11/12 15:24:31;;;;;;;3.70;2.55;;;;;;;;;;5090042;28;20149;-82
2022/11/12 15:26:59;;;;;;;4.50;3.00;;;;;;;;;;5091778;28;20051;-82
2022/11/12 15:29:34;;;;;;;4.57;2.72;;;;;;;;;;5091169;28;20031;-83
2022/11/12 15:32:23;;;;;;;4.47;3.40;;;;;;;;;;5090339;28;20019;-82
2022/11/12 15:34:49;;;;;;;5.35;3.03;;;;;;;;;;5090142;28;20730;-84
2022/11/12 15:37:17;;;;;;;6.53;4.45;;;;;;;;;;5091798;28;20028;-82
2022/11/12 15:40:09;;;;;;;9.25;5.10;;;;;;;;;;5090820;28;20098;-83
2022/11/12 15:42:40;;;;;;;12.73;6.50;;;;;;;;;;5092090;28;20047;-82
2022/11/12 15:45:14;;;;;;;10.52;4.80;;;;;;;;;;5088699;28;20031;-84
2022/11/12 15:47:39;;;;;;;7.22;4.22;;;;;;;;;;5087743;28;20028;-82
2022/11/12 15:50:24;;;;;;;5.40;3.53;;;;;;;;;;5089033;28;20030;-82
2022/11/12 15:52:49;;;;;;;3.80;2.10;;;;;;;;;;5091222;28;20034;-82